createdAt,value
2023-02-28T00:00:40.192Z,7.30
2023-02-28T00:03:13.090Z,7.60
2023-02-28T00:05:46.137Z,7.50
2023-02-28T00:08:19.057Z,8.10
2023-02-28T00:10:52.094Z,7.73
2023-02-28T00:13:25.243Z,8.30
2023-02-28T00:16:09.571Z,8.60
2023-02-28T00:18:42.725Z,7.70
2023-02-28T00:21:15.573Z,7.60
2023-02-28T00:23:48.904Z,5.80
2023-02-28T00:26:22.052Z,5.20
2023-02-28T00:28:55.967Z,5.57
2023-02-28T00:31:29.178Z,4.70
2023-02-28T00:34:02.003Z,5.60
2023-02-28T00:36:35.050Z,6.50
2023-02-28T00:39:08.098Z,6.60
2023-02-28T00:41:44.101Z,7.10
2023-02-28T00:44:17.580Z,7.20
2023-02-28T00:46:50.384Z,7.30
2023-02-28T00:49:23.340Z,7.50
2023-02-28T00:51:56.792Z,8.20
2023-02-28T00:54:29.814Z,7.77
2023-02-28T00:57:04.765Z,7.57
2023-02-28T00:59:36.857Z,6.80
2023-02-28T01:02:09.703Z,6.80
2023-02-28T01:04:42.868Z,6.60
2023-02-28T01:07:16.911Z,6.73
2023-02-28T01:09:50.012Z,5.73
2023-02-28T01:12:22.940Z,5.20
2023-02-28T01:14:55.732Z,5.57
2023-02-28T01:17:29.194Z,5.90
2023-02-28T01:20:02.016Z,5.90
2023-02-28T01:22:34.794Z,6.20
2023-02-28T01:25:07.799Z,6.20
2023-02-28T01:27:42.192Z,6.60
2023-02-28T01:30:16.148Z,6.90
2023-02-28T01:32:49.738Z,6.00
2023-02-28T01:35:22.767Z,6.73
2023-02-28T01:37:58.445Z,6.40
2023-02-28T01:40:30.770Z,6.60
2023-02-28T01:43:03.673Z,6.20
2023-02-28T01:45:41.253Z,6.20
2023-02-28T01:48:15.689Z,5.50
2023-02-28T01:50:51.044Z,5.60
2023-02-28T01:53:25.838Z,5.50
2023-02-28T01:55:59.851Z,5.50
2023-02-28T01:58:32.677Z,5.20
2023-02-28T02:01:10.224Z,5.00
2023-02-28T02:03:43.131Z,5.00
2023-02-28T02:06:15.967Z,4.70
2023-02-28T02:08:48.978Z,5.00
2023-02-28T02:11:23.550Z,5.20
2023-02-28T02:14:10.322Z,4.90
2023-02-28T02:17:09.914Z,5.00
2023-02-28T02:20:05.267Z,4.70
2023-02-28T02:22:43.031Z,4.70
2023-02-28T02:25:20.770Z,4.80
2023-02-28T02:27:58.335Z,4.90
2023-02-28T02:30:39.208Z,5.00
2023-02-28T02:33:47.514Z,5.00
2023-02-28T02:36:27.624Z,5.23
2023-02-28T02:39:02.609Z,4.77
2023-02-28T02:41:43.392Z,5.30
2023-02-28T02:44:35.613Z,4.90
2023-02-28T02:47:13.887Z,5.10
2023-02-28T02:49:49.168Z,5.30
2023-02-28T02:52:24.311Z,4.60
2023-02-28T02:54:59.476Z,4.50
2023-02-28T02:57:34.507Z,4.80
2023-02-28T03:00:10.424Z,4.87
2023-02-28T03:02:44.862Z,4.70
2023-02-28T03:05:34.561Z,4.67
2023-02-28T03:08:08.878Z,5.03
2023-02-28T03:10:50.637Z,5.30
2023-02-28T03:13:31.537Z,5.23
2023-02-28T03:16:09.427Z,4.80
2023-02-28T03:18:50.609Z,5.00
2023-02-28T03:21:43.503Z,4.90
2023-02-28T03:24:27.181Z,5.00
2023-02-28T03:27:03.106Z,5.10
2023-02-28T03:29:44.048Z,5.40
2023-02-28T03:32:35.370Z,5.20
2023-02-28T03:35:10.385Z,5.23
2023-02-28T03:37:45.194Z,5.50
2023-02-28T03:40:23.402Z,5.50
2023-02-28T03:42:58.398Z,5.10
2023-02-28T03:45:34.139Z,5.10
2023-02-28T03:48:09.866Z,5.17
2023-02-28T03:50:44.688Z,5.03
2023-02-28T03:53:19.656Z,5.20
2023-02-28T03:55:54.275Z,5.10
2023-02-28T03:58:38.353Z,5.40
2023-02-28T04:01:19.418Z,5.60
2023-02-28T04:03:53.619Z,5.50
2023-02-28T04:06:27.536Z,5.80
2023-02-28T04:09:00.478Z,5.90
2023-02-28T04:11:47.939Z,5.50
2023-02-28T04:14:20.812Z,5.47
2023-02-28T04:16:54.066Z,5.63
2023-02-28T04:19:27.117Z,5.70
2023-02-28T04:22:04.345Z,5.80
2023-02-28T04:24:37.335Z,5.90
2023-02-28T04:27:10.301Z,5.93
2023-02-28T04:29:44.835Z,5.80
2023-02-28T04:32:17.921Z,6.30
2023-02-28T04:34:56.931Z,6.10
2023-02-28T04:37:31.136Z,6.00
2023-02-28T04:40:08.684Z,6.10
2023-02-28T04:42:41.580Z,6.60
2023-02-28T04:45:15.515Z,6.30
2023-02-28T04:47:49.149Z,6.50
2023-02-28T04:50:22.855Z,6.40
2023-02-28T04:52:56.375Z,6.40
2023-02-28T04:55:29.602Z,6.53
2023-02-28T04:58:03.218Z,6.60
2023-02-28T05:00:36.309Z,6.60
2023-02-28T05:03:09.733Z,6.87
2023-02-28T05:05:43.693Z,7.20
2023-02-28T05:08:16.640Z,6.70
2023-02-28T05:10:49.468Z,6.50
2023-02-28T05:13:22.497Z,6.80
2023-02-28T05:15:55.290Z,6.70
2023-02-28T05:18:28.264Z,6.80
2023-02-28T05:21:01.101Z,7.00
2023-02-28T05:23:34.007Z,7.20
2023-02-28T05:26:06.828Z,7.30
2023-02-28T05:28:39.712Z,7.10
2023-02-28T05:31:15.136Z,6.60
2023-02-28T05:33:47.958Z,6.93
2023-02-28T05:36:20.727Z,6.80
2023-02-28T05:38:54.777Z,7.20
2023-02-28T05:41:28.024Z,7.23
2023-02-28T05:44:04.957Z,7.00
2023-02-28T05:46:37.717Z,7.30
2023-02-28T05:49:11.001Z,6.70
2023-02-28T05:51:43.909Z,6.90
2023-02-28T05:54:16.806Z,6.90
2023-02-28T05:56:49.694Z,6.70
2023-02-28T05:59:22.565Z,7.07
2023-02-28T06:01:56.022Z,7.30
2023-02-28T06:04:32.119Z,7.50
2023-02-28T06:07:03.155Z,7.20
2023-02-28T06:09:35.958Z,7.30
2023-02-28T06:12:10.186Z,6.93
2023-02-28T06:14:43.366Z,6.80
2023-02-28T06:17:16.287Z,6.80
2023-02-28T06:19:49.189Z,7.00
2023-02-28T06:22:22.035Z,7.00
2023-02-28T06:24:55.691Z,7.20
2023-02-28T06:27:28.507Z,7.10
2023-02-28T06:30:01.583Z,7.50
2023-02-28T06:32:34.461Z,7.50
2023-02-28T06:35:07.643Z,7.30
2023-02-28T06:37:41.935Z,6.80
2023-02-28T06:40:16.088Z,7.20
2023-02-28T06:42:48.922Z,7.10
2023-02-28T06:45:21.829Z,7.57
2023-02-28T06:47:55.111Z,7.40
2023-02-28T06:50:28.168Z,7.50
2023-02-28T06:53:01.049Z,7.40
2023-02-28T06:55:34.026Z,7.00
2023-02-28T06:58:06.838Z,7.10
2023-02-28T07:00:39.849Z,7.03
2023-02-28T07:03:12.611Z,7.40
2023-02-28T07:05:46.200Z,6.80
2023-02-28T07:08:19.206Z,7.50
2023-02-28T07:10:52.324Z,6.60
2023-02-28T07:13:25.496Z,7.40
2023-02-28T07:16:12.331Z,7.17
2023-02-28T07:18:45.388Z,8.80
2023-02-28T07:21:18.347Z,8.13
2023-02-28T07:23:51.394Z,8.00
2023-02-28T07:26:24.717Z,8.10
2023-02-28T07:28:57.682Z,7.80
2023-02-28T07:31:30.766Z,7.50
2023-02-28T07:34:03.965Z,7.70
2023-02-28T07:36:36.902Z,7.87
2023-02-28T07:39:10.448Z,7.80
2023-02-28T07:41:44.740Z,7.30
2023-02-28T07:44:17.735Z,7.70
2023-02-28T07:46:50.541Z,7.70
2023-02-28T07:49:23.744Z,7.70
2023-02-28T07:51:57.529Z,7.50
2023-02-28T07:54:30.747Z,7.93
2023-02-28T07:57:04.000Z,7.93
2023-02-28T07:59:37.039Z,7.90
2023-02-28T08:02:10.018Z,8.07
2023-02-28T08:04:43.134Z,7.77
2023-02-28T08:07:17.425Z,7.97
2023-02-28T08:09:50.571Z,7.40
2023-02-28T08:12:23.420Z,7.80
2023-02-28T08:14:56.377Z,7.70
2023-02-28T08:17:29.450Z,7.73
2023-02-28T08:20:06.578Z,8.00
2023-02-28T08:22:39.497Z,8.27
2023-02-28T08:25:13.543Z,7.90
2023-02-28T08:27:47.550Z,7.90
2023-02-28T08:30:23.283Z,7.20
2023-02-28T08:32:55.999Z,7.23
2023-02-28T08:35:28.933Z,7.50
2023-02-28T08:38:02.022Z,7.50
2023-02-28T08:40:34.921Z,7.80
2023-02-28T08:43:07.857Z,7.63
2023-02-28T08:45:40.840Z,7.70
2023-02-28T08:48:18.142Z,7.60
2023-02-28T08:51:06.004Z,7.90
2023-02-28T08:53:27.009Z,7.60
2023-02-28T08:56:07.431Z,7.50
2023-02-28T08:58:40.805Z,7.77
2023-02-28T09:01:15.829Z,7.07
2023-02-28T09:03:49.359Z,7.47
2023-02-28T09:06:23.504Z,7.80
2023-02-28T09:08:56.723Z,7.80
2023-02-28T09:11:29.745Z,8.20
2023-02-28T09:14:03.521Z,8.00
2023-02-28T09:16:38.506Z,7.80
2023-02-28T09:19:17.321Z,7.40
2023-02-28T09:21:50.361Z,7.30
2023-02-28T09:24:23.350Z,7.20
2023-02-28T09:27:04.526Z,7.77
2023-02-28T09:29:30.497Z,7.67
2023-02-28T09:32:03.614Z,7.70
2023-02-28T09:34:37.840Z,7.30
2023-02-28T09:37:10.983Z,7.20
2023-02-28T09:39:43.964Z,7.40
2023-02-28T09:42:28.216Z,7.40
2023-02-28T09:45:02.961Z,7.20
2023-02-28T09:47:40.999Z,7.60
2023-02-28T09:50:32.491Z,7.70
2023-02-28T09:53:07.163Z,7.60
2023-02-28T09:55:47.042Z,8.13
2023-02-28T09:58:30.361Z,8.30
2023-02-28T10:01:08.016Z,8.40
2023-02-28T10:03:48.857Z,8.90
2023-02-28T10:06:23.405Z,8.60
2023-02-28T10:09:01.140Z,8.73
2023-02-28T10:11:36.197Z,9.40
2023-02-28T10:14:19.257Z,9.17
2023-02-28T10:17:00.223Z,9.10
2023-02-28T10:20:00.424Z,8.97
2023-02-28T10:22:43.650Z,9.00
2023-02-28T10:25:30.587Z,8.70
2023-02-28T10:28:05.073Z,9.07
2023-02-28T10:30:38.782Z,8.90
2023-02-28T10:33:12.699Z,8.70
2023-02-28T10:35:45.448Z,8.50
2023-02-28T10:38:29.559Z,7.80
2023-02-28T10:41:17.553Z,7.70
2023-02-28T10:43:50.652Z,7.40
2023-02-28T10:46:31.742Z,7.40
2023-02-28T10:49:13.028Z,6.90
2023-02-28T10:51:49.044Z,7.20
2023-02-28T10:54:33.729Z,8.10
2023-02-28T10:57:23.228Z,8.30
2023-02-28T11:00:00.814Z,8.50
2023-02-28T11:02:44.321Z,8.20
2023-02-28T11:05:37.056Z,8.50
2023-02-28T11:08:20.592Z,8.10
2023-02-28T11:11:01.815Z,8.40
2023-02-28T11:13:40.729Z,8.50
2023-02-28T11:16:15.268Z,8.40
2023-02-28T11:18:56.108Z,8.30
2023-02-28T11:21:31.606Z,8.90
2023-02-28T11:24:06.619Z,8.90
2023-02-28T11:26:44.230Z,8.83
2023-02-28T11:29:25.172Z,9.30
2023-02-28T11:32:12.257Z,9.33
2023-02-28T11:34:46.300Z,9.30
2023-02-28T11:37:21.420Z,8.90
2023-02-28T11:39:54.671Z,9.00
2023-02-28T11:42:31.987Z,9.20
2023-02-28T11:45:27.916Z,8.70
2023-02-28T11:48:06.006Z,8.60
2023-02-28T11:51:06.754Z,8.87
2023-02-28T11:54:01.094Z,8.90
2023-02-28T11:56:39.570Z,8.90
2023-02-28T11:59:43.200Z,9.30
2023-02-28T12:02:27.630Z,9.20
2023-02-28T12:05:29.486Z,9.63
2023-02-28T12:08:16.630Z,9.60
2023-02-28T12:10:57.733Z,9.20
2023-02-28T12:13:45.268Z,9.30
2023-02-28T12:16:41.617Z,8.90
2023-02-28T12:19:25.036Z,8.50
2023-02-28T12:22:21.135Z,8.50
2023-02-28T12:25:12.751Z,8.90
2023-02-28T12:27:47.580Z,9.90
2023-02-28T12:30:28.470Z,10.10
2023-02-28T12:33:13.392Z,9.83
2023-02-28T12:36:03.143Z,9.40
2023-02-28T12:38:46.664Z,9.30
2023-02-28T12:41:40.034Z,9.50
2023-02-28T12:44:18.935Z,9.40
2023-02-28T12:46:53.742Z,8.80
2023-02-28T12:49:34.557Z,9.20
2023-02-28T12:52:08.442Z,9.50
2023-02-28T12:54:43.593Z,8.80
2023-02-28T12:57:21.935Z,9.53
2023-02-28T13:00:02.626Z,9.10
2023-02-28T13:02:59.019Z,9.20
2023-02-28T13:05:56.729Z,9.13
2023-02-28T13:08:57.025Z,9.50
2023-02-28T13:11:31.836Z,9.40
2023-02-28T13:14:07.015Z,9.20
2023-02-28T13:16:53.443Z,9.10
2023-02-28T13:19:28.373Z,9.10
2023-02-28T13:22:04.713Z,9.00
2023-02-28T13:24:48.319Z,8.60
2023-02-28T13:27:29.174Z,9.00
2023-02-28T13:30:02.020Z,8.90
2023-02-28T13:32:39.164Z,9.10
2023-02-28T13:35:13.489Z,9.20
2023-02-28T13:37:48.078Z,9.27
2023-02-28T13:40:39.002Z,9.37
2023-02-28T13:43:12.799Z,8.90
2023-02-28T13:45:47.942Z,8.77
2023-02-28T13:48:28.749Z,9.10
2023-02-28T13:51:01.600Z,9.57
2023-02-28T13:53:54.266Z,8.70
2023-02-28T13:56:44.018Z,8.70
2023-02-28T13:59:21.900Z,8.63
2023-02-28T14:02:02.998Z,8.50
2023-02-28T14:04:49.599Z,8.70
2023-02-28T14:07:33.440Z,9.20
2023-02-28T14:10:09.005Z,9.10
2023-02-28T14:13:02.018Z,8.80
2023-02-28T14:15:42.905Z,8.80
2023-02-28T14:18:25.885Z,8.90
2023-02-28T14:21:05.947Z,8.60
2023-02-28T14:23:59.209Z,8.87
2023-02-28T14:26:53.357Z,8.50
2023-02-28T14:29:40.313Z,8.53
2023-02-28T14:32:17.585Z,8.80
2023-02-28T14:35:13.566Z,9.00
2023-02-28T14:37:48.360Z,9.00
2023-02-28T14:40:29.492Z,8.60
2023-02-28T14:43:04.240Z,8.23
2023-02-28T14:45:38.986Z,8.20
2023-02-28T14:48:13.535Z,8.00
2023-02-28T14:50:48.325Z,8.30
2023-02-28T14:53:26.661Z,8.00
2023-02-28T14:55:59.870Z,7.90
2023-02-28T14:58:38.525Z,8.20
2023-02-28T15:01:12.703Z,9.00
2023-02-28T15:03:58.226Z,8.20
2023-02-28T15:06:31.535Z,8.10
2023-02-28T15:09:15.757Z,8.20
2023-02-28T15:11:52.851Z,7.80
2023-02-28T15:14:32.520Z,7.87
2023-02-28T15:17:18.302Z,8.13
2023-02-28T15:19:52.265Z,7.67
2023-02-28T15:22:30.576Z,7.90
2023-02-28T15:25:05.806Z,7.57
2023-02-28T15:27:50.143Z,6.70
2023-02-28T15:30:39.537Z,7.10
2023-02-28T15:33:26.084Z,7.20
2023-02-28T15:36:15.804Z,7.30
2023-02-28T15:38:55.061Z,7.03
2023-02-28T15:41:37.201Z,7.37
2023-02-28T15:44:39.961Z,7.23
2023-02-28T15:47:24.624Z,7.40
2023-02-28T15:50:21.679Z,7.10
2023-02-28T15:56:02.273Z,7.20
2023-02-28T15:58:40.877Z,7.27
2023-02-28T16:01:33.191Z,7.20
2023-02-28T16:04:23.164Z,7.00
2023-02-28T16:07:07.726Z,7.30
2023-02-28T16:09:44.582Z,6.90
2023-02-28T16:12:17.463Z,6.60
2023-02-28T16:14:51.385Z,6.30
2023-02-28T16:17:26.553Z,6.80
2023-02-28T16:20:00.051Z,5.70
2023-02-28T16:22:32.985Z,6.30
2023-02-28T16:25:07.040Z,6.10
2023-02-28T16:44:43.303Z,6.90
2023-02-28T16:47:16.372Z,6.80
2023-02-28T16:49:50.448Z,7.20
2023-02-28T16:52:23.213Z,7.10
2023-02-28T16:54:59.873Z,6.43
2023-02-28T16:57:32.950Z,6.97
2023-02-28T17:00:05.904Z,8.00
2023-02-28T17:02:42.698Z,6.10
2023-02-28T17:05:15.417Z,5.90
2023-02-28T17:07:48.159Z,6.00
2023-02-28T17:10:29.303Z,6.20
2023-02-28T17:13:14.267Z,6.20
2023-02-28T17:15:36.263Z,5.90
2023-02-28T17:18:09.877Z,6.10
2023-02-28T17:20:44.072Z,6.20
2023-02-28T17:23:16.895Z,5.93
2023-02-28T17:25:50.923Z,6.00
2023-02-28T17:28:24.639Z,5.60
2023-02-28T17:30:57.611Z,5.80
2023-02-28T17:33:30.475Z,5.60
2023-02-28T17:36:03.438Z,5.67
2023-02-28T17:38:36.364Z,5.70
2023-02-28T17:41:09.295Z,6.10
2023-02-28T17:43:42.189Z,5.90
2023-02-28T17:46:17.344Z,6.00
2023-02-28T17:48:50.179Z,6.03
2023-02-28T17:51:24.008Z,5.80
2023-02-28T17:53:57.211Z,5.80
2023-02-28T17:56:30.781Z,5.60
2023-02-28T17:59:03.979Z,5.57
2023-02-28T18:01:36.755Z,5.87
2023-02-28T18:04:21.053Z,5.40
2023-02-28T18:06:54.269Z,5.20
2023-02-28T18:09:27.942Z,5.40
2023-02-28T18:12:01.177Z,5.50
2023-02-28T18:14:34.087Z,5.00
2023-02-28T18:17:06.977Z,4.80
2023-02-28T18:19:40.849Z,4.90
2023-02-28T18:22:13.863Z,4.80
2023-02-28T18:24:47.414Z,5.03
2023-02-28T18:27:20.198Z,4.80
2023-02-28T18:29:54.362Z,4.80
2023-02-28T18:32:27.474Z,4.90
2023-02-28T18:35:00.310Z,5.10
2023-02-28T18:37:33.113Z,5.00
2023-02-28T18:40:05.957Z,5.00
2023-02-28T18:42:38.705Z,4.60
2023-02-28T18:45:12.538Z,4.60
2023-02-28T18:47:45.221Z,4.50
2023-02-28T18:50:18.406Z,4.70
2023-02-28T18:52:51.332Z,4.47
2023-02-28T18:55:25.205Z,4.80
2023-02-28T18:58:02.286Z,4.80
2023-02-28T19:00:39.262Z,5.00
2023-02-28T19:03:13.262Z,4.73
2023-02-28T19:05:46.050Z,5.50
2023-02-28T19:08:18.839Z,5.37
2023-02-28T19:10:51.770Z,5.30
2023-02-28T19:13:24.651Z,5.20
2023-02-28T19:15:59.115Z,5.20
2023-02-28T19:18:31.975Z,5.40
2023-02-28T19:21:05.161Z,5.50
2023-02-28T19:23:38.136Z,5.40
2023-02-28T19:26:13.037Z,5.50
2023-02-28T19:28:46.668Z,5.30
2023-02-28T19:31:21.464Z,5.63
2023-02-28T19:33:55.557Z,5.87
2023-02-28T19:36:29.380Z,5.90
2023-02-28T19:39:02.348Z,5.90
2023-02-28T19:41:35.375Z,6.20
2023-02-28T19:44:08.629Z,6.40
2023-02-28T19:46:41.372Z,6.10
2023-02-28T19:49:14.826Z,6.27
2023-02-28T19:51:47.817Z,6.60
2023-02-28T19:54:20.614Z,6.90
2023-02-28T19:56:53.627Z,6.90
2023-02-28T19:59:38.151Z,7.00
2023-02-28T20:02:02.813Z,6.47
2023-02-28T20:04:35.869Z,6.70
2023-02-28T20:07:08.757Z,6.80
2023-02-28T20:09:41.930Z,6.87
2023-02-28T20:12:23.461Z,7.00
2023-02-28T20:14:49.023Z,7.03
2023-02-28T20:17:22.227Z,7.10
2023-02-28T20:19:55.086Z,7.30
2023-02-28T20:22:28.136Z,7.50
2023-02-28T20:25:01.139Z,7.40
2023-02-28T20:27:35.101Z,7.60
2023-02-28T20:30:08.399Z,7.90
2023-02-28T20:32:44.745Z,8.27
2023-02-28T20:35:17.812Z,8.50
2023-02-28T20:37:51.251Z,8.90
2023-02-28T20:40:24.428Z,8.80
2023-02-28T20:42:58.356Z,8.60
2023-02-28T20:45:31.198Z,8.60
2023-02-28T20:48:04.051Z,8.90
2023-02-28T20:50:37.066Z,9.30
2023-02-28T20:53:09.696Z,10.73
2023-02-28T20:55:42.851Z,10.07
2023-02-28T20:58:15.773Z,10.70
2023-02-28T21:00:49.658Z,10.53
2023-02-28T21:03:24.101Z,9.97
2023-02-28T21:05:58.425Z,10.50
2023-02-28T21:08:31.277Z,10.00
2023-02-28T21:11:04.089Z,10.10
2023-02-28T21:13:36.976Z,9.40
2023-02-28T21:16:11.639Z,9.70
2023-02-28T21:18:44.474Z,9.40
2023-02-28T21:21:19.394Z,9.40
2023-02-28T21:23:52.681Z,7.70
2023-02-28T21:26:27.396Z,8.00
2023-02-28T21:29:01.761Z,8.40
2023-02-28T21:31:36.588Z,8.03
2023-02-28T21:34:11.252Z,8.60
2023-02-28T21:36:46.976Z,8.10
2023-02-28T21:39:28.865Z,7.50
2023-02-28T21:42:04.910Z,7.90
2023-02-28T21:44:37.530Z,7.40
2023-02-28T21:47:10.289Z,8.00
2023-02-28T21:49:43.196Z,8.20
2023-02-28T21:52:16.276Z,7.60
2023-02-28T21:54:49.466Z,7.80
2023-02-28T21:57:22.602Z,7.30
2023-02-28T21:59:55.494Z,6.30
2023-02-28T22:02:30.229Z,6.30
2023-02-28T22:05:07.482Z,6.00
2023-02-28T22:07:41.398Z,7.13
2023-02-28T22:10:17.433Z,7.10
2023-02-28T22:12:50.543Z,7.70
2023-02-28T22:15:23.398Z,6.17
2023-02-28T22:17:56.181Z,6.40
2023-02-28T22:20:28.996Z,6.60
2023-02-28T22:23:01.734Z,6.80
2023-02-28T22:25:34.497Z,6.50
2023-02-28T22:28:07.521Z,6.20
2023-02-28T22:30:40.487Z,5.90
2023-02-28T22:33:13.409Z,5.80
2023-02-28T22:35:46.192Z,5.50
2023-02-28T22:38:19.056Z,5.70
2023-02-28T22:40:51.796Z,5.60
2023-02-28T22:43:24.582Z,5.60
2023-02-28T22:45:57.427Z,6.00
2023-02-28T22:48:36.787Z,5.13
2023-02-28T22:51:17.468Z,5.20
2023-02-28T22:53:51.519Z,5.20
2023-02-28T22:56:26.461Z,5.33
2023-02-28T22:59:01.210Z,5.10
2023-02-28T23:01:37.684Z,5.60
2023-02-28T23:04:11.536Z,5.60
2023-02-28T23:06:45.840Z,4.80
2023-02-28T23:09:20.749Z,5.10
2023-02-28T23:11:54.769Z,4.70
2023-02-28T23:14:27.659Z,4.70
2023-02-28T23:17:00.638Z,4.90
2023-02-28T23:19:34.342Z,5.53
2023-02-28T23:22:07.888Z,5.90
2023-02-28T23:24:45.060Z,5.00
2023-02-28T23:27:18.352Z,5.53
2023-02-28T23:29:51.142Z,5.70
2023-02-28T23:32:24.255Z,5.30
2023-02-28T23:34:57.229Z,5.20
2023-02-28T23:37:34.807Z,5.10
2023-02-28T23:40:09.587Z,5.30
2023-02-28T23:42:42.486Z,4.80
2023-02-28T23:45:15.660Z,5.10
2023-02-28T23:47:48.986Z,4.80
2023-02-28T23:50:22.206Z,4.70
2023-02-28T23:52:56.052Z,5.10
2023-02-28T23:55:28.711Z,4.77
2023-02-28T23:58:01.525Z,5.00
